sensor_id;sensor_type;location;lat;lon;timestamp;pressure;altitude;pressure_sealevel;temperature
68510;BMP180;55512;50.102;19.958;2023-03-01T00:02:01;99847.20;;;-1.56
68510;BMP180;55512;50.102;19.958;2023-03-01T00:04:26;99838.20;;;-1.56
68510;BMP180;55512;50.102;19.958;2023-03-01T00:06:53;99838.40;;;-1.54
68510;BMP180;55512;50.102;19.958;2023-03-01T00:09:19;99846.00;;;-1.56
68510;BMP180;55512;50.102;19.958;2023-03-01T00:11:45;99844.20;;;-1.56
68510;BMP180;55512;50.102;19.958;2023-03-01T00:14:11;99843.40;;;-1.58
68510;BMP180;55512;50.102;19.958;2023-03-01T00:16:40;99839.40;;;-1.60
68510;BMP180;55512;50.102;19.958;2023-03-01T00:19:11;99841.80;;;-1.60
68510;BMP180;55512;50.102;19.958;2023-03-01T00:21:37;99844.80;;;-1.70
68510;BMP180;55512;50.102;19.958;2023-03-01T00:24:03;99839.00;;;-1.70
68510;BMP180;55512;50.102;19.958;2023-03-01T00:26:30;99839.60;;;-1.70
68510;BMP180;55512;50.102;19.958;2023-03-01T00:28:58;99837.80;;;-1.80
68510;BMP180;55512;50.102;19.958;2023-03-01T00:31:27;99836.00;;;-1.80
68510;BMP180;55512;50.102;19.958;2023-03-01T00:33:57;99842.60;;;-1.80
68510;BMP180;55512;50.102;19.958;2023-03-01T00:36:26;99833.40;;;-1.80
68510;BMP180;55512;50.102;19.958;2023-03-01T00:38:53;99832.80;;;-1.80
68510;BMP180;55512;50.102;19.958;2023-03-01T00:41:20;99827.60;;;-1.80
68510;BMP180;55512;50.102;19.958;2023-03-01T00:43:45;99827.60;;;-1.80
68510;BMP180;55512;50.102;19.958;2023-03-01T00:46:14;99825.00;;;-1.88
68510;BMP180;55512;50.102;19.958;2023-03-01T00:48:40;99826.40;;;-1.90
68510;BMP180;55512;50.102;19.958;2023-03-01T00:51:13;99822.60;;;-1.90
68510;BMP180;55512;50.102;19.958;2023-03-01T00:53:40;99808.60;;;-1.90
68510;BMP180;55512;50.102;19.958;2023-03-01T00:56:08;99806.40;;;-1.90
68510;BMP180;55512;50.102;19.958;2023-03-01T00:58:35;99805.80;;;-1.90
68510;BMP180;55512;50.102;19.958;2023-03-01T01:01:07;99808.00;;;-1.90
68510;BMP180;55512;50.102;19.958;2023-03-01T01:03:44;99806.80;;;-1.94
68510;BMP180;55512;50.102;19.958;2023-03-01T01:06:15;99805.80;;;-1.98
68510;BMP180;55512;50.102;19.958;2023-03-01T01:08:41;99803.20;;;-2.00
68510;BMP180;55512;50.102;19.958;2023-03-01T01:11:10;99807.20;;;-2.00
68510;BMP180;55512;50.102;19.958;2023-03-01T01:13:36;99815.00;;;-2.00
68510;BMP180;55512;50.102;19.958;2023-03-01T01:16:02;99803.80;;;-2.00
68510;BMP180;55512;50.102;19.958;2023-03-01T01:18:28;99803.40;;;-2.00
68510;BMP180;55512;50.102;19.958;2023-03-01T01:20:53;99803.40;;;-2.00
68510;BMP180;55512;50.102;19.958;2023-03-01T01:23:18;99796.80;;;-2.00
68510;BMP180;55512;50.102;19.958;2023-03-01T01:25:44;99801.60;;;-2.10
68510;BMP180;55512;50.102;19.958;2023-03-01T01:28:09;99801.00;;;-2.10
68510;BMP180;55512;50.102;19.958;2023-03-01T01:30:35;99788.60;;;-2.10
68510;BMP180;55512;50.102;19.958;2023-03-01T01:33:01;99786.20;;;-2.16
68510;BMP180;55512;50.102;19.958;2023-03-01T01:35:27;99787.80;;;-2.20
68510;BMP180;55512;50.102;19.958;2023-03-01T01:37:52;99786.60;;;-2.20
68510;BMP180;55512;50.102;19.958;2023-03-01T01:40:18;99782.40;;;-2.20
68510;BMP180;55512;50.102;19.958;2023-03-01T01:42:43;99782.40;;;-2.20
68510;BMP180;55512;50.102;19.958;2023-03-01T01:45:29;99781.20;;;-2.20
68510;BMP180;55512;50.102;19.958;2023-03-01T01:48:03;99779.60;;;-2.20
68510;BMP180;55512;50.102;19.958;2023-03-01T01:50:31;99769.80;;;-2.20
68510;BMP180;55512;50.102;19.958;2023-03-01T01:53:08;99774.20;;;-2.20
68510;BMP180;55512;50.102;19.958;2023-03-01T01:55:37;99775.60;;;-2.20
68510;BMP180;55512;50.102;19.958;2023-03-01T01:58:08;99773.20;;;-2.20
68510;BMP180;55512;50.102;19.958;2023-03-01T02:00:37;99768.40;;;-2.10
68510;BMP180;55512;50.102;19.958;2023-03-01T02:03:10;99762.40;;;-2.12
68510;BMP180;55512;50.102;19.958;2023-03-01T02:06:21;99759.60;;;-2.16
68510;BMP180;55512;50.102;19.958;2023-03-01T02:08:51;99760.20;;;-2.20
68510;BMP180;55512;50.102;19.958;2023-03-01T02:11:18;99755.80;;;-2.20
68510;BMP180;55512;50.102;19.958;2023-03-01T02:13:44;99763.00;;;-2.20
68510;BMP180;55512;50.102;19.958;2023-03-01T02:16:15;99764.40;;;-2.20
68510;BMP180;55512;50.102;19.958;2023-03-01T02:18:42;99764.40;;;-2.30
68510;BMP180;55512;50.102;19.958;2023-03-01T02:23:46;99764.60;;;-2.30
68510;BMP180;55512;50.102;19.958;2023-03-01T02:26:17;99767.60;;;-2.30
68510;BMP180;55512;50.102;19.958;2023-03-01T02:28:45;99776.40;;;-2.30
68510;BMP180;55512;50.102;19.958;2023-03-01T02:31:16;99779.20;;;-2.32
68510;BMP180;55512;50.102;19.958;2023-03-01T02:34:03;99780.80;;;-2.34
68510;BMP180;55512;50.102;19.958;2023-03-01T02:36:42;99783.20;;;-2.38
68510;BMP180;55512;50.102;19.958;2023-03-01T02:39:16;99777.80;;;-2.40
68510;BMP180;55512;50.102;19.958;2023-03-01T02:41:50;99775.60;;;-2.40
68510;BMP180;55512;50.102;19.958;2023-03-01T02:44:16;99776.80;;;-2.40
68510;BMP180;55512;50.102;19.958;2023-03-01T02:46:50;99773.00;;;-2.40
68510;BMP180;55512;50.102;19.958;2023-03-01T02:49:31;99774.40;;;-2.50
68510;BMP180;55512;50.102;19.958;2023-03-01T02:55:04;99772.60;;;-2.50
68510;BMP180;55512;50.102;19.958;2023-03-01T02:57:34;99773.80;;;-2.50
68510;BMP180;55512;50.102;19.958;2023-03-01T03:00:09;99771.80;;;-2.46
68510;BMP180;55512;50.102;19.958;2023-03-01T03:02:36;99768.80;;;-2.44
68510;BMP180;55512;50.102;19.958;2023-03-01T03:05:15;99765.00;;;-2.40
68510;BMP180;55512;50.102;19.958;2023-03-01T03:07:45;99768.40;;;-2.40
68510;BMP180;55512;50.102;19.958;2023-03-01T03:10:22;99764.40;;;-2.46
68510;BMP180;55512;50.102;19.958;2023-03-01T03:12:50;99758.40;;;-2.50
68510;BMP180;55512;50.102;19.958;2023-03-01T03:15:16;99753.40;;;-2.60
68510;BMP180;55512;50.102;19.958;2023-03-01T03:17:43;99751.00;;;-2.60
68510;BMP180;55512;50.102;19.958;2023-03-01T03:20:12;99750.60;;;-2.60
68510;BMP180;55512;50.102;19.958;2023-03-01T03:22:39;99752.80;;;-2.60
68510;BMP180;55512;50.102;19.958;2023-03-01T03:25:07;99752.40;;;-2.60
68510;BMP180;55512;50.102;19.958;2023-03-01T03:27:41;99748.20;;;-2.60
68510;BMP180;55512;50.102;19.958;2023-03-01T03:30:10;99751.40;;;-2.60
68510;BMP180;55512;50.102;19.958;2023-03-01T03:32:43;99752.40;;;-2.60
68510;BMP180;55512;50.102;19.958;2023-03-01T03:35:26;99754.60;;;-2.70
68510;BMP180;55512;50.102;19.958;2023-03-01T03:37:53;99755.40;;;-2.70
68510;BMP180;55512;50.102;19.958;2023-03-01T03:40:35;99755.60;;;-2.70
68510;BMP180;55512;50.102;19.958;2023-03-01T03:43:05;99756.00;;;-2.70
68510;BMP180;55512;50.102;19.958;2023-03-01T03:45:31;99752.00;;;-2.70
68510;BMP180;55512;50.102;19.958;2023-03-01T03:48:00;99750.80;;;-2.70
68510;BMP180;55512;50.102;19.958;2023-03-01T03:50:26;99751.80;;;-2.70
68510;BMP180;55512;50.102;19.958;2023-03-01T03:52:51;99755.20;;;-2.70
68510;BMP180;55512;50.102;19.958;2023-03-01T03:55:17;99754.80;;;-2.78
68510;BMP180;55512;50.102;19.958;2023-03-01T03:57:46;99755.60;;;-2.80
68510;BMP180;55512;50.102;19.958;2023-03-01T04:00:21;99749.60;;;-2.80
68510;BMP180;55512;50.102;19.958;2023-03-01T04:02:50;99754.40;;;-2.80
68510;BMP180;55512;50.102;19.958;2023-03-01T04:05:18;99757.80;;;-2.80
68510;BMP180;55512;50.102;19.958;2023-03-01T04:07:45;99752.00;;;-2.80
68510;BMP180;55512;50.102;19.958;2023-03-01T04:10:17;99753.80;;;-2.86
68510;BMP180;55512;50.102;19.958;2023-03-01T04:12:43;99745.80;;;-2.90
68510;BMP180;55512;50.102;19.958;2023-03-01T04:15:11;99746.80;;;-2.90
68510;BMP180;55512;50.102;19.958;2023-03-01T04:17:44;99747.60;;;-2.94
68510;BMP180;55512;50.102;19.958;2023-03-01T04:20:13;99754.00;;;-3.00
68510;BMP180;55512;50.102;19.958;2023-03-01T04:22:40;99754.40;;;-2.94
68510;BMP180;55512;50.102;19.958;2023-03-01T04:25:06;99751.60;;;-2.90
68510;BMP180;55512;50.102;19.958;2023-03-01T04:27:35;99752.80;;;-2.90
68510;BMP180;55512;50.102;19.958;2023-03-01T04:30:05;99753.00;;;-2.90
68510;BMP180;55512;50.102;19.958;2023-03-01T04:32:30;99753.40;;;-2.90
68510;BMP180;55512;50.102;19.958;2023-03-01T04:34:56;99757.80;;;-2.90
68510;BMP180;55512;50.102;19.958;2023-03-01T04:37:23;99751.80;;;-2.90
68510;BMP180;55512;50.102;19.958;2023-03-01T04:39:49;99745.60;;;-2.90
68510;BMP180;55512;50.102;19.958;2023-03-01T04:42:15;99739.60;;;-2.90
68510;BMP180;55512;50.102;19.958;2023-03-01T04:44:42;99736.40;;;-3.00
68510;BMP180;55512;50.102;19.958;2023-03-01T04:47:08;99735.80;;;-3.00
68510;BMP180;55512;50.102;19.958;2023-03-01T04:49:34;99736.60;;;-3.00
68510;BMP180;55512;50.102;19.958;2023-03-01T04:52:00;99732.60;;;-3.00
68510;BMP180;55512;50.102;19.958;2023-03-01T04:54:32;99729.80;;;-3.02
68510;BMP180;55512;50.102;19.958;2023-03-01T04:56:58;99732.40;;;-3.10
68510;BMP180;55512;50.102;19.958;2023-03-01T04:59:24;99726.20;;;-3.10
68510;BMP180;55512;50.102;19.958;2023-03-01T05:01:55;99723.80;;;-3.10
68510;BMP180;55512;50.102;19.958;2023-03-01T05:04:24;99726.80;;;-3.10
68510;BMP180;55512;50.102;19.958;2023-03-01T05:06:50;99732.40;;;-3.10
68510;BMP180;55512;50.102;19.958;2023-03-01T05:09:16;99735.40;;;-3.10
68510;BMP180;55512;50.102;19.958;2023-03-01T05:11:42;99731.40;;;-3.02
68510;BMP180;55512;50.102;19.958;2023-03-01T05:14:09;99729.60;;;-3.00
68510;BMP180;55512;50.102;19.958;2023-03-01T05:16:35;99718.20;;;-3.00
68510;BMP180;55512;50.102;19.958;2023-03-01T05:19:03;99719.20;;;-3.02
68510;BMP180;55512;50.102;19.958;2023-03-01T05:21:38;99717.20;;;-3.10
68510;BMP180;55512;50.102;19.958;2023-03-01T05:24:24;99718.80;;;-3.10
68510;BMP180;55512;50.102;19.958;2023-03-01T05:26:50;99718.40;;;-3.10
68510;BMP180;55512;50.102;19.958;2023-03-01T05:29:19;99722.80;;;-3.10
68510;BMP180;55512;50.102;19.958;2023-03-01T05:31:58;99724.80;;;-3.10
68510;BMP180;55512;50.102;19.958;2023-03-01T05:34:31;99731.60;;;-3.10
68510;BMP180;55512;50.102;19.958;2023-03-01T05:36:57;99734.80;;;-3.10
68510;BMP180;55512;50.102;19.958;2023-03-01T05:39:26;99737.80;;;-3.10
68510;BMP180;55512;50.102;19.958;2023-03-01T05:41:54;99739.20;;;-3.12
68510;BMP180;55512;50.102;19.958;2023-03-01T05:44:20;99738.80;;;-3.10
68510;BMP180;55512;50.102;19.958;2023-03-01T05:46:46;99742.40;;;-3.10
68510;BMP180;55512;50.102;19.958;2023-03-01T05:49:13;99738.60;;;-3.10
68510;BMP180;55512;50.102;19.958;2023-03-01T05:51:40;99733.00;;;-3.10
68510;BMP180;55512;50.102;19.958;2023-03-01T05:54:07;99735.60;;;-3.10
68510;BMP180;55512;50.102;19.958;2023-03-01T05:56:34;99731.20;;;-3.04
68510;BMP180;55512;50.102;19.958;2023-03-01T05:59:01;99733.40;;;-3.00
68510;BMP180;55512;50.102;19.958;2023-03-01T06:01:27;99730.00;;;-3.00
68510;BMP180;55512;50.102;19.958;2023-03-01T06:03:52;99734.80;;;-2.90
68510;BMP180;55512;50.102;19.958;2023-03-01T06:06:18;99737.60;;;-2.90
68510;BMP180;55512;50.102;19.958;2023-03-01T06:08:43;99738.80;;;-2.82
68510;BMP180;55512;50.102;19.958;2023-03-01T06:11:09;99736.00;;;-2.80
68510;BMP180;55512;50.102;19.958;2023-03-01T06:13:35;99740.00;;;-2.76
68510;BMP180;55512;50.102;19.958;2023-03-01T06:16:04;99746.20;;;-2.70
68510;BMP180;55512;50.102;19.958;2023-03-01T06:18:29;99745.40;;;-2.66
68510;BMP180;55512;50.102;19.958;2023-03-01T06:20:55;99744.00;;;-2.60
68510;BMP180;55512;50.102;19.958;2023-03-01T06:23:22;99751.20;;;-2.50
68510;BMP180;55512;50.102;19.958;2023-03-01T06:25:48;99749.20;;;-2.40
68510;BMP180;55512;50.102;19.958;2023-03-01T06:28:14;99751.60;;;-2.40
68510;BMP180;55512;50.102;19.958;2023-03-01T06:30:39;99751.20;;;-2.30
68510;BMP180;55512;50.102;19.958;2023-03-01T06:33:04;99750.40;;;-2.30
68510;BMP180;55512;50.102;19.958;2023-03-01T06:35:30;99753.40;;;-2.22
68510;BMP180;55512;50.102;19.958;2023-03-01T06:37:58;99750.80;;;-2.20
68510;BMP180;55512;50.102;19.958;2023-03-01T06:40:24;99755.20;;;-2.20
68510;BMP180;55512;50.102;19.958;2023-03-01T06:42:51;99748.40;;;-2.20
68510;BMP180;55512;50.102;19.958;2023-03-01T06:45:19;99747.80;;;-2.10
68510;BMP180;55512;50.102;19.958;2023-03-01T06:47:46;99747.20;;;-2.10
68510;BMP180;55512;50.102;19.958;2023-03-01T06:50:12;99740.60;;;-2.10
68510;BMP180;55512;50.102;19.958;2023-03-01T06:52:38;99740.20;;;-2.06
68510;BMP180;55512;50.102;19.958;2023-03-01T06:55:05;99744.80;;;-2.00
68510;BMP180;55512;50.102;19.958;2023-03-01T06:57:31;99741.80;;;-2.00
68510;BMP180;55512;50.102;19.958;2023-03-01T06:59:57;99746.20;;;-1.90
68510;BMP180;55512;50.102;19.958;2023-03-01T07:02:23;99742.20;;;-1.80
68510;BMP180;55512;50.102;19.958;2023-03-01T07:04:50;99736.80;;;-1.70
68510;BMP180;55512;50.102;19.958;2023-03-01T07:07:16;99733.80;;;-1.60
68510;BMP180;55512;50.102;19.958;2023-03-01T07:09:44;99735.60;;;-1.54
68510;BMP180;55512;50.102;19.958;2023-03-01T07:12:10;99730.40;;;-1.40
68510;BMP180;55512;50.102;19.958;2023-03-01T07:14:36;99731.00;;;-1.34
68510;BMP180;55512;50.102;19.958;2023-03-01T07:17:01;99728.20;;;-1.30
68510;BMP180;55512;50.102;19.958;2023-03-01T07:19:27;99721.00;;;-1.20
68510;BMP180;55512;50.102;19.958;2023-03-01T07:21:52;99717.20;;;-1.10
68510;BMP180;55512;50.102;19.958;2023-03-01T07:24:18;99718.60;;;-1.00
68510;BMP180;55512;50.102;19.958;2023-03-01T07:26:44;99712.20;;;-0.90
68510;BMP180;55512;50.102;19.958;2023-03-01T07:29:10;99711.60;;;-0.90
68510;BMP180;55512;50.102;19.958;2023-03-01T07:31:36;99716.40;;;-0.80
68510;BMP180;55512;50.102;19.958;2023-03-01T07:34:02;99712.60;;;-0.70
68510;BMP180;55512;50.102;19.958;2023-03-01T07:36:28;99711.60;;;-0.70
68510;BMP180;55512;50.102;19.958;2023-03-01T07:38:53;99711.60;;;-0.60
68510;BMP180;55512;50.102;19.958;2023-03-01T07:41:21;99722.40;;;-0.60
68510;BMP180;55512;50.102;19.958;2023-03-01T07:43:46;99726.20;;;-0.58
68510;BMP180;55512;50.102;19.958;2023-03-01T07:46:12;99725.00;;;-0.50
68510;BMP180;55512;50.102;19.958;2023-03-01T07:48:38;99727.60;;;-0.50
68510;BMP180;55512;50.102;19.958;2023-03-01T07:51:06;99725.20;;;-0.50
68510;BMP180;55512;50.102;19.958;2023-03-01T07:53:32;99728.00;;;-0.40
68510;BMP180;55512;50.102;19.958;2023-03-01T07:56:05;99730.80;;;-0.38
68510;BMP180;55512;50.102;19.958;2023-03-01T07:58:31;99731.20;;;-0.30
68510;BMP180;55512;50.102;19.958;2023-03-01T08:01:04;99730.40;;;-0.20
68510;BMP180;55512;50.102;19.958;2023-03-01T08:03:30;99731.00;;;-0.20
68510;BMP180;55512;50.102;19.958;2023-03-01T08:06:00;99730.60;;;-0.10
68510;BMP180;55512;50.102;19.958;2023-03-01T08:08:26;99726.20;;;-0.02
68510;BMP180;55512;50.102;19.958;2023-03-01T08:10:51;99723.40;;;0.00
68510;BMP180;55512;50.102;19.958;2023-03-01T08:13:17;99717.60;;;0.10
68510;BMP180;55512;50.102;19.958;2023-03-01T08:15:51;99721.20;;;0.20
68510;BMP180;55512;50.102;19.958;2023-03-01T08:18:18;99717.80;;;0.26
68510;BMP180;55512;50.102;19.958;2023-03-01T08:20:44;99719.20;;;0.30
68510;BMP180;55512;50.102;19.958;2023-03-01T08:23:10;99717.40;;;0.40
68510;BMP180;55512;50.102;19.958;2023-03-01T08:25:36;99717.80;;;0.40
68510;BMP180;55512;50.102;19.958;2023-03-01T08:28:02;99716.80;;;0.50
68510;BMP180;55512;50.102;19.958;2023-03-01T08:30:27;99715.80;;;0.50
68510;BMP180;55512;50.102;19.958;2023-03-01T08:32:53;99711.00;;;0.60
68510;BMP180;55512;50.102;19.958;2023-03-01T08:35:21;99709.00;;;0.68
68510;BMP180;55512;50.102;19.958;2023-03-01T08:37:47;99705.40;;;0.70
68510;BMP180;55512;50.102;19.958;2023-03-01T08:40:13;99705.00;;;0.80
68510;BMP180;55512;50.102;19.958;2023-03-01T08:42:40;99706.40;;;0.80
68510;BMP180;55512;50.102;19.958;2023-03-01T08:45:07;99703.40;;;0.86
68510;BMP180;55512;50.102;19.958;2023-03-01T08:47:33;99706.80;;;0.90
68510;BMP180;55512;50.102;19.958;2023-03-01T08:50:00;99703.00;;;1.00
68510;BMP180;55512;50.102;19.958;2023-03-01T08:52:26;99699.80;;;1.00
68510;BMP180;55512;50.102;19.958;2023-03-01T08:54:52;99698.20;;;1.10
68510;BMP180;55512;50.102;19.958;2023-03-01T08:57:18;99705.20;;;1.20
68510;BMP180;55512;50.102;19.958;2023-03-01T08:59:43;99702.60;;;1.30
68510;BMP180;55512;50.102;19.958;2023-03-01T09:02:17;99704.60;;;1.38
68510;BMP180;55512;50.102;19.958;2023-03-01T09:04:43;99707.80;;;1.40
68510;BMP180;55512;50.102;19.958;2023-03-01T09:07:10;99710.80;;;1.50
68510;BMP180;55512;50.102;19.958;2023-03-01T09:09:36;99716.80;;;1.60
68510;BMP180;55512;50.102;19.958;2023-03-01T09:12:03;99715.40;;;1.60
68510;BMP180;55512;50.102;19.958;2023-03-01T09:14:29;99709.00;;;1.70
68510;BMP180;55512;50.102;19.958;2023-03-01T09:16:55;99702.00;;;1.80
68510;BMP180;55512;50.102;19.958;2023-03-01T09:19:21;99703.40;;;1.80
68510;BMP180;55512;50.102;19.958;2023-03-01T09:21:46;99700.60;;;1.90
68510;BMP180;55512;50.102;19.958;2023-03-01T09:24:23;99693.40;;;1.90
68510;BMP180;55512;50.102;19.958;2023-03-01T09:26:53;99690.80;;;2.00
68510;BMP180;55512;50.102;19.958;2023-03-01T09:29:18;99695.00;;;2.00
68510;BMP180;55512;50.102;19.958;2023-03-01T09:31:44;99699.00;;;2.08
68510;BMP180;55512;50.102;19.958;2023-03-01T09:34:09;99694.80;;;2.10
68510;BMP180;55512;50.102;19.958;2023-03-01T09:36:36;99698.80;;;2.18
68510;BMP180;55512;50.102;19.958;2023-03-01T09:39:03;99699.60;;;2.20
68510;BMP180;55512;50.102;19.958;2023-03-01T09:42:00;99708.60;;;2.28
68510;BMP180;55512;50.102;19.958;2023-03-01T09:44:41;99709.60;;;2.30
68510;BMP180;55512;50.102;19.958;2023-03-01T09:47:40;99705.60;;;2.36
68510;BMP180;55512;50.102;19.958;2023-03-01T09:50:14;99704.80;;;2.40
68510;BMP180;55512;50.102;19.958;2023-03-01T09:53:26;99704.20;;;2.50
68510;BMP180;55512;50.102;19.958;2023-03-01T09:56:05;99698.80;;;2.60
68510;BMP180;55512;50.102;19.958;2023-03-01T10:02:14;99702.80;;;2.70
68510;BMP180;55512;50.102;19.958;2023-03-01T10:04:49;99701.40;;;2.72
68510;BMP180;55512;50.102;19.958;2023-03-01T10:10:47;99699.20;;;2.90
68510;BMP180;55512;50.102;19.958;2023-03-01T10:13:45;99697.00;;;3.00
68510;BMP180;55512;50.102;19.958;2023-03-01T10:16:24;99693.80;;;3.00
68510;BMP180;55512;50.102;19.958;2023-03-01T10:18:59;99699.40;;;3.10
68510;BMP180;55512;50.102;19.958;2023-03-01T10:21:28;99689.20;;;3.10
68510;BMP180;55512;50.102;19.958;2023-03-01T10:24:10;99689.40;;;3.20
68510;BMP180;55512;50.102;19.958;2023-03-01T10:26:58;99683.20;;;3.26
68510;BMP180;55512;50.102;19.958;2023-03-01T10:29:39;99680.80;;;3.34
68510;BMP180;55512;50.102;19.958;2023-03-01T10:32:05;99683.00;;;3.40
68510;BMP180;55512;50.102;19.958;2023-03-01T10:34:35;99682.00;;;3.40
68510;BMP180;55512;50.102;19.958;2023-03-01T10:37:17;99683.00;;;3.50
68510;BMP180;55512;50.102;19.958;2023-03-01T10:40:05;99687.40;;;3.60
68510;BMP180;55512;50.102;19.958;2023-03-01T10:42:39;99686.80;;;3.64
68510;BMP180;55512;50.102;19.958;2023-03-01T10:48:25;99679.40;;;3.80
68510;BMP180;55512;50.102;19.958;2023-03-01T10:53:37;99675.80;;;3.88
68510;BMP180;55512;50.102;19.958;2023-03-01T10:56:09;99677.40;;;3.92
68510;BMP180;55512;50.102;19.958;2023-03-01T10:58:39;99669.20;;;4.00
68510;BMP180;55512;50.102;19.958;2023-03-01T11:01:34;99677.60;;;4.10
68510;BMP180;55512;50.102;19.958;2023-03-01T11:04:18;99671.60;;;4.12
68510;BMP180;55512;50.102;19.958;2023-03-01T11:06:58;99672.60;;;4.20
68510;BMP180;55512;50.102;19.958;2023-03-01T11:09:24;99666.80;;;4.30
68510;BMP180;55512;50.102;19.958;2023-03-01T11:11:57;99663.80;;;4.30
68510;BMP180;55512;50.102;19.958;2023-03-01T11:14:34;99659.60;;;4.40
68510;BMP180;55512;50.102;19.958;2023-03-01T11:17:28;99653.60;;;4.42
68510;BMP180;55512;50.102;19.958;2023-03-01T11:22:47;99651.60;;;4.60
68510;BMP180;55512;50.102;19.958;2023-03-01T11:25:15;99652.60;;;4.60
68510;BMP180;55512;50.102;19.958;2023-03-01T11:27:45;99652.20;;;4.70
68510;BMP180;55512;50.102;19.958;2023-03-01T11:30:34;99652.00;;;4.80
68510;BMP180;55512;50.102;19.958;2023-03-01T11:35:44;99650.00;;;4.86
68510;BMP180;55512;50.102;19.958;2023-03-01T11:38:26;99649.00;;;4.90
68510;BMP180;55512;50.102;19.958;2023-03-01T11:49:46;99641.20;;;5.20
68510;BMP180;55512;50.102;19.958;2023-03-01T11:52:36;99640.20;;;5.30
68510;BMP180;55512;50.102;19.958;2023-03-01T12:07:24;99626.20;;;5.62
68510;BMP180;55512;50.102;19.958;2023-03-01T12:16:13;99616.20;;;5.90
68510;BMP180;55512;50.102;19.958;2023-03-01T12:33:38;99611.80;;;6.58
68510;BMP180;55512;50.102;19.958;2023-03-01T12:36:55;99604.80;;;6.70
68510;BMP180;55512;50.102;19.958;2023-03-01T12:43:05;99588.40;;;7.00
68510;BMP180;55512;50.102;19.958;2023-03-01T12:51:11;99584.20;;;7.30
68510;BMP180;55512;50.102;19.958;2023-03-01T12:53:47;99581.60;;;7.40
68510;BMP180;55512;50.102;19.958;2023-03-01T12:56:19;99579.00;;;7.50
68510;BMP180;55512;50.102;19.958;2023-03-01T12:59:24;99576.20;;;7.50
68510;BMP180;55512;50.102;19.958;2023-03-01T13:02:27;99573.00;;;7.60
68510;BMP180;55512;50.102;19.958;2023-03-01T13:10:49;99577.20;;;8.00
68510;BMP180;55512;50.102;19.958;2023-03-01T13:13:33;99580.20;;;8.10
68510;BMP180;55512;50.102;19.958;2023-03-01T13:16:40;99586.20;;;8.20
68510;BMP180;55512;50.102;19.958;2023-03-01T13:19:20;99587.20;;;8.30
68510;BMP180;55512;50.102;19.958;2023-03-01T13:21:48;99587.00;;;8.40
68510;BMP180;55512;50.102;19.958;2023-03-01T13:29:57;99583.00;;;8.70
68510;BMP180;55512;50.102;19.958;2023-03-01T13:32:29;99582.60;;;8.90
68510;BMP180;55512;50.102;19.958;2023-03-01T13:37:51;99581.20;;;8.80
68510;BMP180;55512;50.102;19.958;2023-03-01T13:42:49;99575.80;;;9.00
68510;BMP180;55512;50.102;19.958;2023-03-01T13:45:35;99572.40;;;9.18
68510;BMP180;55512;50.102;19.958;2023-03-01T13:48:25;99562.00;;;9.30
68510;BMP180;55512;50.102;19.958;2023-03-01T13:50:58;99566.40;;;9.50
68510;BMP180;55512;50.102;19.958;2023-03-01T13:53:33;99558.20;;;9.70
68510;BMP180;55512;50.102;19.958;2023-03-01T13:56:15;99559.20;;;9.80
68510;BMP180;55512;50.102;19.958;2023-03-01T13:58:58;99554.60;;;9.96
68510;BMP180;55512;50.102;19.958;2023-03-01T14:01:36;99547.20;;;9.80
68510;BMP180;55512;50.102;19.958;2023-03-01T14:06:46;99546.40;;;10.06
68510;BMP180;55512;50.102;19.958;2023-03-01T14:09:23;99549.80;;;10.26
68510;BMP180;55512;50.102;19.958;2023-03-01T14:14:54;99540.20;;;10.72
68510;BMP180;55512;50.102;19.958;2023-03-01T14:20:30;99541.80;;;12.12
68510;BMP180;55512;50.102;19.958;2023-03-01T14:23:01;99552.00;;;14.60
68510;BMP180;55512;50.102;19.958;2023-03-01T14:25:31;99552.80;;;17.80
68510;BMP180;55512;50.102;19.958;2023-03-01T14:28:14;99564.80;;;20.22
68510;BMP180;55512;50.102;19.958;2023-03-01T14:30:46;99567.00;;;22.62
68510;BMP180;55512;50.102;19.958;2023-03-01T14:33:32;99572.80;;;24.30
68510;BMP180;55512;50.102;19.958;2023-03-01T14:36:11;99578.40;;;25.84
68510;BMP180;55512;50.102;19.958;2023-03-01T14:38:43;99584.60;;;27.46
68510;BMP180;55512;50.102;19.958;2023-03-01T14:43:46;99596.20;;;30.32
68510;BMP180;55512;50.102;19.958;2023-03-01T14:46:37;99596.60;;;31.30
68510;BMP180;55512;50.102;19.958;2023-03-01T14:49:19;99598.00;;;32.26
68510;BMP180;55512;50.102;19.958;2023-03-01T14:52:19;99600.60;;;33.08
68510;BMP180;55512;50.102;19.958;2023-03-01T14:54:52;99597.00;;;33.40
68510;BMP180;55512;50.102;19.958;2023-03-01T14:57:25;99601.80;;;33.30
68510;BMP180;55512;50.102;19.958;2023-03-01T14:59:54;99606.20;;;33.80
68510;BMP180;55512;50.102;19.958;2023-03-01T15:02:25;99610.20;;;34.12
68510;BMP180;55512;50.102;19.958;2023-03-01T15:04:56;99606.80;;;34.60
68510;BMP180;55512;50.102;19.958;2023-03-01T15:07:29;99601.20;;;34.54
68510;BMP180;55512;50.102;19.958;2023-03-01T15:09:56;99601.40;;;34.50
68510;BMP180;55512;50.102;19.958;2023-03-01T15:12:35;99604.00;;;34.60
68510;BMP180;55512;50.102;19.958;2023-03-01T15:15:01;99605.40;;;34.70
68510;BMP180;55512;50.102;19.958;2023-03-01T15:17:44;99609.20;;;34.80
68510;BMP180;55512;50.102;19.958;2023-03-01T15:20:19;99610.00;;;34.70
68510;BMP180;55512;50.102;19.958;2023-03-01T15:22:47;99608.00;;;34.50
68510;BMP180;55512;50.102;19.958;2023-03-01T15:25:19;99608.80;;;34.30
68510;BMP180;55512;50.102;19.958;2023-03-01T15:27:47;99613.20;;;34.00
68510;BMP180;55512;50.102;19.958;2023-03-01T15:30:20;99607.60;;;33.70
68510;BMP180;55512;50.102;19.958;2023-03-01T15:32:46;99612.40;;;33.12
68510;BMP180;55512;50.102;19.958;2023-03-01T15:35:41;99613.00;;;32.56
68510;BMP180;55512;50.102;19.958;2023-03-01T15:41:00;99606.00;;;31.56
68510;BMP180;55512;50.102;19.958;2023-03-01T15:43:46;99600.80;;;30.80
68510;BMP180;55512;50.102;19.958;2023-03-01T15:46:22;99602.20;;;29.22
68510;BMP180;55512;50.102;19.958;2023-03-01T15:48:54;99595.80;;;28.04
68510;BMP180;55512;50.102;19.958;2023-03-01T15:51:41;99590.80;;;27.40
68510;BMP180;55512;50.102;19.958;2023-03-01T15:54:18;99588.00;;;26.72
68510;BMP180;55512;50.102;19.958;2023-03-01T15:56:45;99584.40;;;25.44
68510;BMP180;55512;50.102;19.958;2023-03-01T15:59:12;99587.20;;;23.88
68510;BMP180;55512;50.102;19.958;2023-03-01T16:01:40;99583.80;;;22.28
68510;BMP180;55512;50.102;19.958;2023-03-01T16:04:06;99586.00;;;20.92
68510;BMP180;55512;50.102;19.958;2023-03-01T16:06:31;99585.60;;;19.64
68510;BMP180;55512;50.102;19.958;2023-03-01T16:08:57;99586.60;;;18.54